sensor_id;sensor_type;location;lat;lon;timestamp;temperature;humidity
49124;DHT22;48506;48.202;16.274;2023-05-16T00:00:22;14.10;99.30
49124;DHT22;48506;48.202;16.274;2023-05-16T00:02:50;14.00;99.00
49124;DHT22;48506;48.202;16.274;2023-05-16T00:05:16;14.00;99.00
49124;DHT22;48506;48.202;16.274;2023-05-16T00:07:44;14.10;99.10
49124;DHT22;48506;48.202;16.274;2023-05-16T00:10:10;14.00;99.10
49124;DHT22;48506;48.202;16.274;2023-05-16T00:12:37;14.10;99.20
49124;DHT22;48506;48.202;16.274;2023-05-16T00:15:05;14.00;99.10
49124;DHT22;48506;48.202;16.274;2023-05-16T00:17:34;14.00;99.10
49124;DHT22;48506;48.202;16.274;2023-05-16T00:20:03;14.00;98.90
49124;DHT22;48506;48.202;16.274;2023-05-16T00:22:36;14.10;99.00
49124;DHT22;48506;48.202;16.274;2023-05-16T00:25:03;14.10;98.90
49124;DHT22;48506;48.202;16.274;2023-05-16T00:27:29;14.00;99.00
49124;DHT22;48506;48.202;16.274;2023-05-16T00:29:55;14.10;99.20
49124;DHT22;48506;48.202;16.274;2023-05-16T00:32:21;14.10;99.00
49124;DHT22;48506;48.202;16.274;2023-05-16T00:34:47;14.00;99.10
49124;DHT22;48506;48.202;16.274;2023-05-16T00:37:13;14.00;98.90
49124;DHT22;48506;48.202;16.274;2023-05-16T00:39:39;14.10;99.10
49124;DHT22;48506;48.202;16.274;2023-05-16T00:42:06;14.10;99.00
49124;DHT22;48506;48.202;16.274;2023-05-16T00:44:32;14.10;99.00
49124;DHT22;48506;48.202;16.274;2023-05-16T00:46:58;14.10;98.90
49124;DHT22;48506;48.202;16.274;2023-05-16T00:49:26;14.10;99.00
49124;DHT22;48506;48.202;16.274;2023-05-16T00:51:52;14.10;98.80
49124;DHT22;48506;48.202;16.274;2023-05-16T00:54:21;14.10;98.80
49124;DHT22;48506;48.202;16.274;2023-05-16T00:56:48;14.10;98.60
49124;DHT22;48506;48.202;16.274;2023-05-16T00:59:15;14.20;98.70
49124;DHT22;48506;48.202;16.274;2023-05-16T01:01:42;14.10;98.70
49124;DHT22;48506;48.202;16.274;2023-05-16T01:04:09;14.10;98.70
49124;DHT22;48506;48.202;16.274;2023-05-16T01:06:35;14.10;98.70
49124;DHT22;48506;48.202;16.274;2023-05-16T01:09:01;14.10;98.90
49124;DHT22;48506;48.202;16.274;2023-05-16T01:11:35;14.10;98.80
49124;DHT22;48506;48.202;16.274;2023-05-16T01:14:16;14.10;98.90
49124;DHT22;48506;48.202;16.274;2023-05-16T01:17:07;14.00;98.80
49124;DHT22;48506;48.202;16.274;2023-05-16T01:25:36;14.10;98.70
49124;DHT22;48506;48.202;16.274;2023-05-16T01:28:04;14.00;98.70
49124;DHT22;48506;48.202;16.274;2023-05-16T01:30:37;14.00;98.90
49124;DHT22;48506;48.202;16.274;2023-05-16T01:33:03;14.00;98.70
49124;DHT22;48506;48.202;16.274;2023-05-16T01:35:29;14.00;98.70
49124;DHT22;48506;48.202;16.274;2023-05-16T01:38:17;14.00;98.90
49124;DHT22;48506;48.202;16.274;2023-05-16T01:43:34;14.00;98.60
49124;DHT22;48506;48.202;16.274;2023-05-16T01:46:09;14.00;98.70
49124;DHT22;48506;48.202;16.274;2023-05-16T01:48:53;14.00;98.80
49124;DHT22;48506;48.202;16.274;2023-05-16T01:51:25;13.90;98.70
49124;DHT22;48506;48.202;16.274;2023-05-16T01:53:56;13.90;98.90
49124;DHT22;48506;48.202;16.274;2023-05-16T01:56:24;13.90;99.10
49124;DHT22;48506;48.202;16.274;2023-05-16T01:58:52;13.90;99.10
49124;DHT22;48506;48.202;16.274;2023-05-16T02:01:18;13.90;99.40
49124;DHT22;48506;48.202;16.274;2023-05-16T02:03:45;13.90;99.10
49124;DHT22;48506;48.202;16.274;2023-05-16T02:06:10;13.90;99.20
49124;DHT22;48506;48.202;16.274;2023-05-16T02:08:36;13.90;99.20
49124;DHT22;48506;48.202;16.274;2023-05-16T02:11:02;13.80;99.20
49124;DHT22;48506;48.202;16.274;2023-05-16T02:13:28;13.80;99.20
49124;DHT22;48506;48.202;16.274;2023-05-16T02:15:54;13.80;99.30
49124;DHT22;48506;48.202;16.274;2023-05-16T02:18:20;13.70;99.40
49124;DHT22;48506;48.202;16.274;2023-05-16T02:20:49;13.70;99.60
49124;DHT22;48506;48.202;16.274;2023-05-16T02:23:15;13.60;99.70
49124;DHT22;48506;48.202;16.274;2023-05-16T02:25:41;13.60;99.70
49124;DHT22;48506;48.202;16.274;2023-05-16T02:28:07;13.60;99.60
49124;DHT22;48506;48.202;16.274;2023-05-16T02:30:32;13.60;99.80
49124;DHT22;48506;48.202;16.274;2023-05-16T02:32:58;13.60;99.60
49124;DHT22;48506;48.202;16.274;2023-05-16T02:35:24;13.60;99.60
49124;DHT22;48506;48.202;16.274;2023-05-16T02:37:50;13.60;99.70
49124;DHT22;48506;48.202;16.274;2023-05-16T02:40:16;13.60;99.60
49124;DHT22;48506;48.202;16.274;2023-05-16T02:42:42;13.60;99.80
49124;DHT22;48506;48.202;16.274;2023-05-16T02:45:09;13.60;99.80
49124;DHT22;48506;48.202;16.274;2023-05-16T02:47:35;13.50;99.90
49124;DHT22;48506;48.202;16.274;2023-05-16T02:50:01;13.60;99.80
49124;DHT22;48506;48.202;16.274;2023-05-16T02:52:28;13.50;99.80
49124;DHT22;48506;48.202;16.274;2023-05-16T02:54:54;13.50;99.80
49124;DHT22;48506;48.202;16.274;2023-05-16T02:57:20;13.60;99.90
49124;DHT22;48506;48.202;16.274;2023-05-16T02:59:46;13.60;99.80
49124;DHT22;48506;48.202;16.274;2023-05-16T03:02:12;13.60;99.80
49124;DHT22;48506;48.202;16.274;2023-05-16T03:04:38;13.60;99.70
49124;DHT22;48506;48.202;16.274;2023-05-16T03:07:04;13.60;99.60
49124;DHT22;48506;48.202;16.274;2023-05-16T03:09:29;13.60;99.70
49124;DHT22;48506;48.202;16.274;2023-05-16T03:11:55;13.60;99.40
49124;DHT22;48506;48.202;16.274;2023-05-16T03:14:21;13.60;99.30
49124;DHT22;48506;48.202;16.274;2023-05-16T03:16:47;13.70;99.50
49124;DHT22;48506;48.202;16.274;2023-05-16T03:19:13;13.70;99.10
49124;DHT22;48506;48.202;16.274;2023-05-16T03:21:39;13.70;99.00
49124;DHT22;48506;48.202;16.274;2023-05-16T03:24:05;13.80;99.00
49124;DHT22;48506;48.202;16.274;2023-05-16T03:26:32;13.80;99.00
49124;DHT22;48506;48.202;16.274;2023-05-16T03:28:58;13.80;98.90
49124;DHT22;48506;48.202;16.274;2023-05-16T03:31:24;13.90;98.90
49124;DHT22;48506;48.202;16.274;2023-05-16T03:33:50;13.90;98.80
49124;DHT22;48506;48.202;16.274;2023-05-16T03:36:16;13.80;98.90
49124;DHT22;48506;48.202;16.274;2023-05-16T03:38:42;13.90;98.90
49124;DHT22;48506;48.202;16.274;2023-05-16T03:41:08;13.90;99.00
49124;DHT22;48506;48.202;16.274;2023-05-16T03:43:34;13.90;98.90
49124;DHT22;48506;48.202;16.274;2023-05-16T03:46:03;13.90;98.90
49124;DHT22;48506;48.202;16.274;2023-05-16T03:48:29;13.90;98.70
49124;DHT22;48506;48.202;16.274;2023-05-16T03:50:55;13.90;98.80
49124;DHT22;48506;48.202;16.274;2023-05-16T03:53:20;13.90;98.80
49124;DHT22;48506;48.202;16.274;2023-05-16T03:55:46;13.90;98.60
49124;DHT22;48506;48.202;16.274;2023-05-16T03:58:12;13.90;98.60
49124;DHT22;48506;48.202;16.274;2023-05-16T04:00:38;13.90;98.80
49124;DHT22;48506;48.202;16.274;2023-05-16T04:03:04;14.00;98.70
49124;DHT22;48506;48.202;16.274;2023-05-16T04:05:30;14.00;98.70
49124;DHT22;48506;48.202;16.274;2023-05-16T04:07:56;14.00;98.70
49124;DHT22;48506;48.202;16.274;2023-05-16T04:10:22;14.10;98.60
49124;DHT22;48506;48.202;16.274;2023-05-16T04:12:48;14.10;98.50
49124;DHT22;48506;48.202;16.274;2023-05-16T04:15:14;14.10;98.50
49124;DHT22;48506;48.202;16.274;2023-05-16T04:17:40;14.20;98.60
49124;DHT22;48506;48.202;16.274;2023-05-16T04:20:06;14.20;98.60
49124;DHT22;48506;48.202;16.274;2023-05-16T04:22:32;14.20;98.50
49124;DHT22;48506;48.202;16.274;2023-05-16T04:24:58;14.20;98.40
49124;DHT22;48506;48.202;16.274;2023-05-16T04:27:23;14.20;98.60
49124;DHT22;48506;48.202;16.274;2023-05-16T04:29:52;14.20;98.50
49124;DHT22;48506;48.202;16.274;2023-05-16T04:32:17;14.20;98.30
49124;DHT22;48506;48.202;16.274;2023-05-16T04:34:44;14.30;98.40
49124;DHT22;48506;48.202;16.274;2023-05-16T04:37:13;14.20;98.40
49124;DHT22;48506;48.202;16.274;2023-05-16T04:39:38;14.30;98.80
49124;DHT22;48506;48.202;16.274;2023-05-16T04:42:05;14.30;98.40
49124;DHT22;48506;48.202;16.274;2023-05-16T04:44:31;14.30;98.50
49124;DHT22;48506;48.202;16.274;2023-05-16T04:46:57;14.30;98.50
49124;DHT22;48506;48.202;16.274;2023-05-16T04:49:23;14.30;98.50
49124;DHT22;48506;48.202;16.274;2023-05-16T04:51:49;14.40;98.60
49124;DHT22;48506;48.202;16.274;2023-05-16T04:54:14;14.40;98.60
49124;DHT22;48506;48.202;16.274;2023-05-16T04:56:40;14.50;98.70
49124;DHT22;48506;48.202;16.274;2023-05-16T04:59:06;14.50;98.70
49124;DHT22;48506;48.202;16.274;2023-05-16T05:01:33;14.60;98.50
49124;DHT22;48506;48.202;16.274;2023-05-16T05:03:58;14.50;98.50
49124;DHT22;48506;48.202;16.274;2023-05-16T05:06:24;14.50;98.50
49124;DHT22;48506;48.202;16.274;2023-05-16T05:08:52;14.50;98.80
49124;DHT22;48506;48.202;16.274;2023-05-16T05:11:19;14.60;98.70
49124;DHT22;48506;48.202;16.274;2023-05-16T05:13:46;14.70;98.80
49124;DHT22;48506;48.202;16.274;2023-05-16T05:16:12;14.80;98.70
49124;DHT22;48506;48.202;16.274;2023-05-16T05:18:38;14.80;98.50
49124;DHT22;48506;48.202;16.274;2023-05-16T05:21:04;14.90;98.60
49124;DHT22;48506;48.202;16.274;2023-05-16T05:23:30;14.90;98.60
49124;DHT22;48506;48.202;16.274;2023-05-16T05:25:56;14.90;98.40
49124;DHT22;48506;48.202;16.274;2023-05-16T05:28:22;14.90;98.50
49124;DHT22;48506;48.202;16.274;2023-05-16T05:30:48;15.10;98.60
49124;DHT22;48506;48.202;16.274;2023-05-16T05:33:16;15.10;98.30
49124;DHT22;48506;48.202;16.274;2023-05-16T05:35:43;15.20;98.40
49124;DHT22;48506;48.202;16.274;2023-05-16T05:38:09;15.30;98.30
49124;DHT22;48506;48.202;16.274;2023-05-16T05:40:35;15.40;98.30
49124;DHT22;48506;48.202;16.274;2023-05-16T05:43:01;15.50;98.20
49124;DHT22;48506;48.202;16.274;2023-05-16T05:45:27;15.60;98.00
49124;DHT22;48506;48.202;16.274;2023-05-16T05:47:53;15.60;97.80
49124;DHT22;48506;48.202;16.274;2023-05-16T05:50:19;15.60;97.80
49124;DHT22;48506;48.202;16.274;2023-05-16T05:52:46;15.50;98.00
49124;DHT22;48506;48.202;16.274;2023-05-16T05:55:11;15.60;97.90
49124;DHT22;48506;48.202;16.274;2023-05-16T05:57:37;15.70;97.80
49124;DHT22;48506;48.202;16.274;2023-05-16T06:00:04;15.70;97.60
49124;DHT22;48506;48.202;16.274;2023-05-16T06:02:31;15.70;97.70
49124;DHT22;48506;48.202;16.274;2023-05-16T06:04:57;15.80;97.70
49124;DHT22;48506;48.202;16.274;2023-05-16T06:07:23;15.90;97.80
49124;DHT22;48506;48.202;16.274;2023-05-16T06:09:49;16.00;97.70
49124;DHT22;48506;48.202;16.274;2023-05-16T06:12:16;16.00;97.60
49124;DHT22;48506;48.202;16.274;2023-05-16T06:14:42;16.00;97.50
49124;DHT22;48506;48.202;16.274;2023-05-16T06:17:07;16.10;97.70
49124;DHT22;48506;48.202;16.274;2023-05-16T06:19:33;16.10;97.30
49124;DHT22;48506;48.202;16.274;2023-05-16T06:21:59;16.10;97.10
49124;DHT22;48506;48.202;16.274;2023-05-16T06:24:25;16.10;97.10
49124;DHT22;48506;48.202;16.274;2023-05-16T06:26:51;16.00;96.90
49124;DHT22;48506;48.202;16.274;2023-05-16T06:29:17;16.00;96.70
49124;DHT22;48506;48.202;16.274;2023-05-16T06:31:44;16.00;96.80
49124;DHT22;48506;48.202;16.274;2023-05-16T06:34:12;16.00;96.70
49124;DHT22;48506;48.202;16.274;2023-05-16T06:36:38;16.00;97.00
49124;DHT22;48506;48.202;16.274;2023-05-16T06:39:03;16.10;97.40
49124;DHT22;48506;48.202;16.274;2023-05-16T06:41:29;16.10;97.20
49124;DHT22;48506;48.202;16.274;2023-05-16T06:43:55;16.20;96.80
49124;DHT22;48506;48.202;16.274;2023-05-16T06:46:22;16.10;96.70
49124;DHT22;48506;48.202;16.274;2023-05-16T06:48:48;16.10;96.60
49124;DHT22;48506;48.202;16.274;2023-05-16T06:51:14;16.10;96.80
49124;DHT22;48506;48.202;16.274;2023-05-16T06:53:40;16.10;96.60
49124;DHT22;48506;48.202;16.274;2023-05-16T06:56:06;16.20;96.90
49124;DHT22;48506;48.202;16.274;2023-05-16T06:58:32;16.20;96.90
49124;DHT22;48506;48.202;16.274;2023-05-16T07:00:58;16.30;96.90
49124;DHT22;48506;48.202;16.274;2023-05-16T07:03:24;16.30;96.80
49124;DHT22;48506;48.202;16.274;2023-05-16T07:05:51;16.40;97.00
49124;DHT22;48506;48.202;16.274;2023-05-16T07:08:17;16.50;97.00
49124;DHT22;48506;48.202;16.274;2023-05-16T07:10:43;16.50;96.80
49124;DHT22;48506;48.202;16.274;2023-05-16T07:13:09;16.50;96.50
49124;DHT22;48506;48.202;16.274;2023-05-16T07:15:35;16.50;96.60
49124;DHT22;48506;48.202;16.274;2023-05-16T07:18:01;16.50;96.90
49124;DHT22;48506;48.202;16.274;2023-05-16T07:20:27;16.50;96.80
49124;DHT22;48506;48.202;16.274;2023-05-16T07:22:53;16.40;96.60
49124;DHT22;48506;48.202;16.274;2023-05-16T07:25:23;16.40;96.90
49124;DHT22;48506;48.202;16.274;2023-05-16T07:27:49;16.50;96.90
49124;DHT22;48506;48.202;16.274;2023-05-16T07:30:15;16.40;96.50
49124;DHT22;48506;48.202;16.274;2023-05-16T07:32:41;16.40;96.80
49124;DHT22;48506;48.202;16.274;2023-05-16T07:35:08;16.30;96.80
49124;DHT22;48506;48.202;16.274;2023-05-16T07:37:35;16.30;96.70
49124;DHT22;48506;48.202;16.274;2023-05-16T07:40:01;16.30;96.90
49124;DHT22;48506;48.202;16.274;2023-05-16T07:42:28;16.30;96.80
49124;DHT22;48506;48.202;16.274;2023-05-16T07:44:54;16.30;96.70
49124;DHT22;48506;48.202;16.274;2023-05-16T07:47:20;16.30;96.60
49124;DHT22;48506;48.202;16.274;2023-05-16T07:49:45;16.30;96.70
49124;DHT22;48506;48.202;16.274;2023-05-16T07:52:11;16.20;96.60
49124;DHT22;48506;48.202;16.274;2023-05-16T07:54:37;16.20;96.90
49124;DHT22;48506;48.202;16.274;2023-05-16T07:57:03;16.10;96.70
49124;DHT22;48506;48.202;16.274;2023-05-16T07:59:29;16.00;96.80
49124;DHT22;48506;48.202;16.274;2023-05-16T08:01:55;16.00;96.80
49124;DHT22;48506;48.202;16.274;2023-05-16T08:04:21;15.90;97.00
49124;DHT22;48506;48.202;16.274;2023-05-16T08:06:48;15.90;97.20
49124;DHT22;48506;48.202;16.274;2023-05-16T08:09:14;15.90;97.40
49124;DHT22;48506;48.202;16.274;2023-05-16T08:11:40;15.80;97.50
49124;DHT22;48506;48.202;16.274;2023-05-16T08:14:06;15.80;98.00
49124;DHT22;48506;48.202;16.274;2023-05-16T08:16:31;15.70;98.30
49124;DHT22;48506;48.202;16.274;2023-05-16T08:18:57;15.70;98.90
49124;DHT22;48506;48.202;16.274;2023-05-16T08:21:23;15.70;99.30
49124;DHT22;48506;48.202;16.274;2023-05-16T08:23:49;15.60;99.30
49124;DHT22;48506;48.202;16.274;2023-05-16T08:26:16;15.60;99.80
49124;DHT22;48506;48.202;16.274;2023-05-16T08:28:42;15.60;99.90
49124;DHT22;48506;48.202;16.274;2023-05-16T08:31:08;15.50;99.90
49124;DHT22;48506;48.202;16.274;2023-05-16T08:33:34;15.50;99.90
49124;DHT22;48506;48.202;16.274;2023-05-16T08:36:00;15.50;99.90
49124;DHT22;48506;48.202;16.274;2023-05-16T08:38:26;15.50;99.90
49124;DHT22;48506;48.202;16.274;2023-05-16T08:40:52;15.50;99.90
49124;DHT22;48506;48.202;16.274;2023-05-16T08:43:19;15.30;99.90
49124;DHT22;48506;48.202;16.274;2023-05-16T08:45:45;15.30;99.90
49124;DHT22;48506;48.202;16.274;2023-05-16T08:48:11;15.30;99.90
49124;DHT22;48506;48.202;16.274;2023-05-16T08:50:37;15.30;99.90
49124;DHT22;48506;48.202;16.274;2023-05-16T08:53:05;15.30;99.90
49124;DHT22;48506;48.202;16.274;2023-05-16T08:55:33;15.40;99.90
49124;DHT22;48506;48.202;16.274;2023-05-16T08:58:00;15.40;99.90
49124;DHT22;48506;48.202;16.274;2023-05-16T09:00:27;15.30;99.90
49124;DHT22;48506;48.202;16.274;2023-05-16T09:02:53;15.40;99.90
49124;DHT22;48506;48.202;16.274;2023-05-16T09:05:22;15.30;99.90
49124;DHT22;48506;48.202;16.274;2023-05-16T09:07:48;15.30;99.90
49124;DHT22;48506;48.202;16.274;2023-05-16T09:10:15;15.30;99.90
49124;DHT22;48506;48.202;16.274;2023-05-16T09:12:41;15.20;99.90
49124;DHT22;48506;48.202;16.274;2023-05-16T09:15:09;15.20;99.90
49124;DHT22;48506;48.202;16.274;2023-05-16T09:17:43;15.20;99.90
49124;DHT22;48506;48.202;16.274;2023-05-16T09:20:16;15.20;99.90
49124;DHT22;48506;48.202;16.274;2023-05-16T09:22:51;15.20;99.90
49124;DHT22;48506;48.202;16.274;2023-05-16T09:25:19;15.10;99.90
49124;DHT22;48506;48.202;16.274;2023-05-16T09:27:46;15.10;99.90
49124;DHT22;48506;48.202;16.274;2023-05-16T09:30:16;15.10;99.90
49124;DHT22;48506;48.202;16.274;2023-05-16T09:32:46;15.10;99.90
49124;DHT22;48506;48.202;16.274;2023-05-16T09:35:15;15.00;99.90
49124;DHT22;48506;48.202;16.274;2023-05-16T09:37:45;15.00;99.90
49124;DHT22;48506;48.202;16.274;2023-05-16T09:40:12;14.90;99.90
49124;DHT22;48506;48.202;16.274;2023-05-16T09:42:38;15.00;99.90
49124;DHT22;48506;48.202;16.274;2023-05-16T09:45:05;15.00;99.90
49124;DHT22;48506;48.202;16.274;2023-05-16T09:47:31;15.00;99.90
49124;DHT22;48506;48.202;16.274;2023-05-16T09:49:57;15.00;99.90
49124;DHT22;48506;48.202;16.274;2023-05-16T09:52:26;15.10;99.90
49124;DHT22;48506;48.202;16.274;2023-05-16T09:54:53;15.10;99.90
49124;DHT22;48506;48.202;16.274;2023-05-16T09:57:20;15.10;99.90
49124;DHT22;48506;48.202;16.274;2023-05-16T09:59:49;15.00;99.90
49124;DHT22;48506;48.202;16.274;2023-05-16T10:02:15;15.10;99.90
49124;DHT22;48506;48.202;16.274;2023-05-16T10:04:41;15.10;99.90
49124;DHT22;48506;48.202;16.274;2023-05-16T10:07:07;15.00;99.90
49124;DHT22;48506;48.202;16.274;2023-05-16T10:09:35;15.10;99.90
49124;DHT22;48506;48.202;16.274;2023-05-16T10:12:02;15.10;99.90
49124;DHT22;48506;48.202;16.274;2023-05-16T10:14:36;15.10;99.90
49124;DHT22;48506;48.202;16.274;2023-05-16T10:17:06;15.10;99.90
49124;DHT22;48506;48.202;16.274;2023-05-16T10:19:37;15.10;99.90
49124;DHT22;48506;48.202;16.274;2023-05-16T10:22:04;15.10;99.90
49124;DHT22;48506;48.202;16.274;2023-05-16T10:24:42;15.10;99.90
49124;DHT22;48506;48.202;16.274;2023-05-16T10:27:09;15.10;99.90
49124;DHT22;48506;48.202;16.274;2023-05-16T10:29:37;15.00;99.90
49124;DHT22;48506;48.202;16.274;2023-05-16T10:32:05;15.00;99.90
49124;DHT22;48506;48.202;16.274;2023-05-16T10:34:33;15.00;99.90
49124;DHT22;48506;48.202;16.274;2023-05-16T10:36:59;14.90;99.90
49124;DHT22;48506;48.202;16.274;2023-05-16T10:39:26;14.90;99.90
49124;DHT22;48506;48.202;16.274;2023-05-16T10:41:53;14.90;99.90
49124;DHT22;48506;48.202;16.274;2023-05-16T10:44:20;14.90;99.90
49124;DHT22;48506;48.202;16.274;2023-05-16T10:46:47;14.90;99.90
49124;DHT22;48506;48.202;16.274;2023-05-16T10:49:31;14.90;99.90
49124;DHT22;48506;48.202;16.274;2023-05-16T10:54:35;15.00;99.90
49124;DHT22;48506;48.202;16.274;2023-05-16T10:57:16;15.00;99.90
49124;DHT22;48506;48.202;16.274;2023-05-16T10:59:47;14.90;99.90
49124;DHT22;48506;48.202;16.274;2023-05-16T11:02:27;15.00;99.90
49124;DHT22;48506;48.202;16.274;2023-05-16T11:04:58;14.90;99.90
49124;DHT22;48506;48.202;16.274;2023-05-16T11:07:29;15.00;99.90
49124;DHT22;48506;48.202;16.274;2023-05-16T11:10:09;15.00;99.90
49124;DHT22;48506;48.202;16.274;2023-05-16T11:12:47;15.00;99.90
49124;DHT22;48506;48.202;16.274;2023-05-16T11:15:24;15.00;99.90
49124;DHT22;48506;48.202;16.274;2023-05-16T11:18:02;15.00;99.90
49124;DHT22;48506;48.202;16.274;2023-05-16T11:20:31;15.00;99.90
49124;DHT22;48506;48.202;16.274;2023-05-16T11:23:18;15.00;99.90
49124;DHT22;48506;48.202;16.274;2023-05-16T11:25:57;15.00;99.90
49124;DHT22;48506;48.202;16.274;2023-05-16T11:28:26;15.00;99.90
49124;DHT22;48506;48.202;16.274;2023-05-16T11:30:54;15.00;99.90
49124;DHT22;48506;48.202;16.274;2023-05-16T11:33:24;15.00;99.90
49124;DHT22;48506;48.202;16.274;2023-05-16T11:36:07;15.00;99.90
49124;DHT22;48506;48.202;16.274;2023-05-16T11:38:33;15.10;99.90
49124;DHT22;48506;48.202;16.274;2023-05-16T11:41:04;15.10;99.90
49124;DHT22;48506;48.202;16.274;2023-05-16T11:43:42;15.20;99.90
49124;DHT22;48506;48.202;16.274;2023-05-16T11:46:12;15.20;99.90
49124;DHT22;48506;48.202;16.274;2023-05-16T11:48:39;15.20;99.90
49124;DHT22;48506;48.202;16.274;2023-05-16T11:51:06;15.20;99.90
49124;DHT22;48506;48.202;16.274;2023-05-16T11:53:33;15.30;99.90
49124;DHT22;48506;48.202;16.274;2023-05-16T11:55:59;15.10;99.90
49124;DHT22;48506;48.202;16.274;2023-05-16T11:58:27;15.10;99.90
49124;DHT22;48506;48.202;16.274;2023-05-16T12:00:53;15.10;99.90
49124;DHT22;48506;48.202;16.274;2023-05-16T12:03:20;15.20;99.90
49124;DHT22;48506;48.202;16.274;2023-05-16T12:05:53;15.20;99.90
49124;DHT22;48506;48.202;16.274;2023-05-16T12:08:21;15.30;99.90
49124;DHT22;48506;48.202;16.274;2023-05-16T12:10:50;15.30;99.90
49124;DHT22;48506;48.202;16.274;2023-05-16T12:13:21;15.30;99.90
49124;DHT22;48506;48.202;16.274;2023-05-16T12:15:48;15.40;99.90
49124;DHT22;48506;48.202;16.274;2023-05-16T12:18:17;15.40;99.90
49124;DHT22;48506;48.202;16.274;2023-05-16T12:20:43;15.40;99.90
49124;DHT22;48506;48.202;16.274;2023-05-16T12:23:13;15.40;99.90
49124;DHT22;48506;48.202;16.274;2023-05-16T12:25:44;15.30;99.90
49124;DHT22;48506;48.202;16.274;2023-05-16T12:28:12;15.40;99.90
49124;DHT22;48506;48.202;16.274;2023-05-16T12:30:42;15.50;99.90
49124;DHT22;48506;48.202;16.274;2023-05-16T12:33:12;15.50;99.90
49124;DHT22;48506;48.202;16.274;2023-05-16T12:35:42;15.50;99.90
49124;DHT22;48506;48.202;16.274;2023-05-16T12:38:09;15.60;99.90
49124;DHT22;48506;48.202;16.274;2023-05-16T12:40:36;15.50;99.90
49124;DHT22;48506;48.202;16.274;2023-05-16T12:43:18;15.40;99.90
49124;DHT22;48506;48.202;16.274;2023-05-16T12:45:55;15.50;99.90
49124;DHT22;48506;48.202;16.274;2023-05-16T12:48:23;15.50;99.90
49124;DHT22;48506;48.202;16.274;2023-05-16T12:50:49;15.40;99.90
49124;DHT22;48506;48.202;16.274;2023-05-16T12:53:17;15.50;99.90
49124;DHT22;48506;48.202;16.274;2023-05-16T12:55:43;15.60;99.90
49124;DHT22;48506;48.202;16.274;2023-05-16T12:58:10;15.70;99.90
49124;DHT22;48506;48.202;16.274;2023-05-16T13:00:37;15.50;99.90
49124;DHT22;48506;48.202;16.274;2023-05-16T13:03:06;15.50;99.90
49124;DHT22;48506;48.202;16.274;2023-05-16T13:05:33;15.50;99.90
49124;DHT22;48506;48.202;16.274;2023-05-16T13:08:01;15.50;99.90
49124;DHT22;48506;48.202;16.274;2023-05-16T13:10:28;15.50;99.90
49124;DHT22;48506;48.202;16.274;2023-05-16T13:12:55;15.50;99.90
49124;DHT22;48506;48.202;16.274;2023-05-16T13:15:23;15.40;99.90
49124;DHT22;48506;48.202;16.274;2023-05-16T13:17:49;15.40;99.90
49124;DHT22;48506;48.202;16.274;2023-05-16T13:20:16;15.50;99.90
49124;DHT22;48506;48.202;16.274;2023-05-16T13:22:42;15.50;99.90
49124;DHT22;48506;48.202;16.274;2023-05-16T13:25:09;15.50;99.90
49124;DHT22;48506;48.202;16.274;2023-05-16T13:27:36;15.60;99.90
49124;DHT22;48506;48.202;16.274;2023-05-16T13:30:02;15.50;99.90
49124;DHT22;48506;48.202;16.274;2023-05-16T13:32:32;15.50;99.90
49124;DHT22;48506;48.202;16.274;2023-05-16T13:34:58;15.40;99.90
49124;DHT22;48506;48.202;16.274;2023-05-16T13:37:24;15.40;99.90
49124;DHT22;48506;48.202;16.274;2023-05-16T13:39:50;15.30;99.90
49124;DHT22;48506;48.202;16.274;2023-05-16T13:42:17;15.30;99.90
49124;DHT22;48506;48.202;16.274;2023-05-16T13:44:44;15.30;99.90
49124;DHT22;48506;48.202;16.274;2023-05-16T13:47:10;15.30;99.90
49124;DHT22;48506;48.202;16.274;2023-05-16T13:49:36;15.20;99.90
49124;DHT22;48506;48.202;16.274;2023-05-16T13:52:04;15.20;99.90
49124;DHT22;48506;48.202;16.274;2023-05-16T13:54:31;15.20;99.90
49124;DHT22;48506;48.202;16.274;2023-05-16T13:56:58;15.20;99.90
49124;DHT22;48506;48.202;16.274;2023-05-16T13:59:24;15.20;99.90
49124;DHT22;48506;48.202;16.274;2023-05-16T14:01:50;15.20;99.90
49124;DHT22;48506;48.202;16.274;2023-05-16T14:04:16;15.10;99.90
49124;DHT22;48506;48.202;16.274;2023-05-16T14:06:42;15.00;99.90
49124;DHT22;48506;48.202;16.274;2023-05-16T14:09:08;15.00;99.90
49124;DHT22;48506;48.202;16.274;2023-05-16T14:11:35;15.10;99.90
49124;DHT22;48506;48.202;16.274;2023-05-16T14:14:01;15.10;99.90
49124;DHT22;48506;48.202;16.274;2023-05-16T14:16:27;15.10;99.90
49124;DHT22;48506;48.202;16.274;2023-05-16T14:18:55;15.10;99.90
49124;DHT22;48506;48.202;16.274;2023-05-16T14:21:23;15.10;99.90
49124;DHT22;48506;48.202;16.274;2023-05-16T14:23:49;15.10;99.90
49124;DHT22;48506;48.202;16.274;2023-05-16T14:26:16;15.10;99.90
49124;DHT22;48506;48.202;16.274;2023-05-16T14:28:47;15.10;99.90
49124;DHT22;48506;48.202;16.274;2023-05-16T14:31:13;15.10;99.90
49124;DHT22;48506;48.202;16.274;2023-05-16T14:33:39;15.00;99.90
49124;DHT22;48506;48.202;16.274;2023-05-16T14:36:06;14.90;99.90
49124;DHT22;48506;48.202;16.274;2023-05-16T14:38:34;14.90;99.90
49124;DHT22;48506;48.202;16.274;2023-05-16T14:41:01;14.90;99.90
49124;DHT22;48506;48.202;16.274;2023-05-16T14:43:28;15.00;99.90
49124;DHT22;48506;48.202;16.274;2023-05-16T14:45:55;15.10;99.90
49124;DHT22;48506;48.202;16.274;2023-05-16T14:48:21;15.10;99.90
49124;DHT22;48506;48.202;16.274;2023-05-16T14:50:47;15.10;99.90
49124;DHT22;48506;48.202;16.274;2023-05-16T14:53:13;15.00;99.90
49124;DHT22;48506;48.202;16.274;2023-05-16T14:55:39;15.00;99.90
49124;DHT22;48506;48.202;16.274;2023-05-16T14:58:05;15.00;99.90
49124;DHT22;48506;48.202;16.274;2023-05-16T15:00:32;14.90;99.90
49124;DHT22;48506;48.202;16.274;2023-05-16T15:02:59;14.90;99.90
49124;DHT22;48506;48.202;16.274;2023-05-16T15:05:25;14.90;99.90
49124;DHT22;48506;48.202;16.274;2023-05-16T15:07:51;14.90;99.90
49124;DHT22;48506;48.202;16.274;2023-05-16T15:10:17;14.80;99.90
49124;DHT22;48506;48.202;16.274;2023-05-16T15:12:44;14.80;99.90
49124;DHT22;48506;48.202;16.274;2023-05-16T15:15:10;14.80;99.90
49124;DHT22;48506;48.202;16.274;2023-05-16T15:17:40;14.80;99.90
49124;DHT22;48506;48.202;16.274;2023-05-16T15:20:08;14.80;99.90
49124;DHT22;48506;48.202;16.274;2023-05-16T15:22:37;14.80;99.90
49124;DHT22;48506;48.202;16.274;2023-05-16T15:25:04;14.80;99.90
49124;DHT22;48506;48.202;16.274;2023-05-16T15:27:32;14.90;99.90